createdAt,value
2022-11-07T00:00:20.364Z,13.84
2022-11-07T00:02:46.787Z,13.88
2022-11-07T00:05:13.202Z,13.88
2022-11-07T00:07:39.558Z,13.88
2022-11-07T00:10:06.824Z,13.90
2022-11-07T00:12:36.392Z,13.90
2022-11-07T00:15:05.192Z,13.92
2022-11-07T00:17:32.035Z,13.92
2022-11-07T00:19:58.434Z,13.94
2022-11-07T00:22:24.912Z,13.95
2022-11-07T00:24:51.320Z,13.96
2022-11-07T00:27:17.792Z,13.95
2022-11-07T00:29:44.295Z,13.98
2022-11-07T00:32:10.672Z,13.98
2022-11-07T00:34:37.001Z,13.98
2022-11-07T00:37:03.388Z,14.00
2022-11-07T00:39:29.737Z,14.00
2022-11-07T00:41:56.062Z,14.00
2022-11-07T00:44:22.782Z,14.01
2022-11-07T00:46:49.310Z,14.02
2022-11-07T00:49:15.663Z,14.03
2022-11-07T00:51:42.515Z,14.04
2022-11-07T00:54:08.873Z,14.05
2022-11-07T00:56:35.240Z,14.05
2022-11-07T00:59:01.621Z,14.05
2022-11-07T01:01:30.630Z,14.08
2022-11-07T01:04:16.182Z,14.09
2022-11-07T01:06:44.645Z,14.11
2022-11-07T01:09:14.975Z,14.12
2022-11-07T01:11:41.712Z,14.12
2022-11-07T01:14:09.139Z,14.13
2022-11-07T01:16:35.946Z,14.15
2022-11-07T01:19:03.443Z,14.15
2022-11-07T01:21:30.448Z,14.17
2022-11-07T01:23:57.337Z,14.17
2022-11-07T01:26:23.753Z,14.18
2022-11-07T01:28:50.105Z,14.18
2022-11-07T01:31:17.695Z,14.18
2022-11-07T01:33:44.497Z,14.20
2022-11-07T01:36:14.918Z,14.21
2022-11-07T01:38:44.776Z,14.20
2022-11-07T01:41:27.071Z,14.21
2022-11-07T01:44:08.812Z,14.22
2022-11-07T01:46:45.368Z,14.22
2022-11-07T01:49:36.119Z,14.22
2022-11-07T01:52:08.376Z,14.22
2022-11-07T01:54:41.703Z,14.22
2022-11-07T01:57:13.988Z,14.21
2022-11-07T01:59:40.969Z,14.21
2022-11-07T02:02:08.704Z,14.22
2022-11-07T02:04:36.193Z,14.23
2022-11-07T02:07:15.626Z,14.24
2022-11-07T02:09:43.428Z,14.24
2022-11-07T02:12:10.056Z,14.24
2022-11-07T02:14:36.463Z,14.25
2022-11-07T02:17:02.962Z,14.27
2022-11-07T02:19:35.989Z,14.28
2022-11-07T02:22:11.263Z,14.29
2022-11-07T02:24:38.806Z,14.28
2022-11-07T02:27:11.685Z,14.29
2022-11-07T02:29:40.282Z,14.30
2022-11-07T02:32:09.945Z,14.30
2022-11-07T02:34:36.786Z,14.30
2022-11-07T02:37:12.075Z,14.31
2022-11-07T02:39:38.417Z,14.30
2022-11-07T02:42:06.375Z,14.31
2022-11-07T02:44:33.930Z,14.30
2022-11-07T02:47:00.346Z,14.30
2022-11-07T02:49:26.777Z,14.29
2022-11-07T02:51:53.126Z,14.27
2022-11-07T02:54:19.462Z,14.26
2022-11-07T02:56:45.772Z,14.24
2022-11-07T02:59:12.261Z,14.22
2022-11-07T03:01:38.770Z,14.20
2022-11-07T03:04:05.245Z,14.19
2022-11-07T03:06:31.674Z,14.18
2022-11-07T03:08:58.036Z,14.19
2022-11-07T03:11:24.386Z,14.19
2022-11-07T03:13:50.728Z,14.20
2022-11-07T03:16:18.844Z,14.22
2022-11-07T03:18:45.221Z,14.25
2022-11-07T03:21:11.646Z,14.25
2022-11-07T03:23:38.123Z,14.28
2022-11-07T03:26:05.214Z,14.29
2022-11-07T03:28:32.638Z,14.32
2022-11-07T03:31:04.335Z,14.36
2022-11-07T03:33:31.224Z,14.37
2022-11-07T03:35:57.636Z,14.38
2022-11-07T03:38:24.001Z,14.40
2022-11-07T03:40:50.515Z,14.42
2022-11-07T03:43:17.183Z,14.44
2022-11-07T03:45:43.867Z,14.46
2022-11-07T03:48:10.247Z,14.47
2022-11-07T03:50:36.660Z,14.47
2022-11-07T03:53:02.994Z,14.49
2022-11-07T03:55:29.338Z,14.49
2022-11-07T03:57:55.720Z,14.52
2022-11-07T04:00:22.201Z,14.49
2022-11-07T04:02:48.659Z,14.51
2022-11-07T04:05:15.200Z,14.52
2022-11-07T04:07:41.586Z,14.52
2022-11-07T04:10:08.128Z,14.52
2022-11-07T04:12:53.029Z,14.50
2022-11-07T04:15:38.000Z,14.52
2022-11-07T04:18:04.441Z,14.50
2022-11-07T04:20:30.826Z,14.51
2022-11-07T04:22:57.303Z,14.50
2022-11-07T04:25:43.611Z,14.49
2022-11-07T04:28:09.993Z,14.50
2022-11-07T04:30:36.328Z,14.52
2022-11-07T04:33:03.086Z,14.52
2022-11-07T04:35:31.673Z,14.53
2022-11-07T04:37:59.489Z,14.53
2022-11-07T04:40:26.701Z,14.53
2022-11-07T04:42:53.744Z,14.54
2022-11-07T04:45:20.231Z,14.56
2022-11-07T04:47:46.855Z,14.55
2022-11-07T04:50:16.207Z,14.57
2022-11-07T04:52:42.786Z,14.57
2022-11-07T04:55:19.512Z,14.58
2022-11-07T04:57:45.897Z,14.58
2022-11-07T05:00:12.729Z,14.57
2022-11-07T05:02:39.269Z,14.59
2022-11-07T05:05:06.238Z,14.59
2022-11-07T05:07:32.573Z,14.59
2022-11-07T05:09:59.157Z,14.60
2022-11-07T05:12:25.507Z,14.61
2022-11-07T05:14:51.829Z,14.61
2022-11-07T05:17:18.524Z,14.62
2022-11-07T05:19:45.140Z,14.62
2022-11-07T05:22:30.262Z,14.61
2022-11-07T05:24:56.621Z,14.61
2022-11-07T05:27:24.076Z,14.60
2022-11-07T05:29:50.861Z,14.60
2022-11-07T05:32:17.505Z,14.60
2022-11-07T05:34:43.894Z,14.59
2022-11-07T05:37:12.112Z,14.58
2022-11-07T05:39:38.639Z,14.57
2022-11-07T05:42:05.307Z,14.56
2022-11-07T05:44:31.816Z,14.56
2022-11-07T05:46:58.853Z,14.56
2022-11-07T05:49:25.748Z,14.55
2022-11-07T05:51:52.519Z,14.55
2022-11-07T05:54:19.003Z,14.55
2022-11-07T05:56:45.421Z,14.55
2022-11-07T05:59:12.457Z,14.55
2022-11-07T06:01:39.069Z,14.57
2022-11-07T06:04:06.932Z,14.57
2022-11-07T06:06:33.385Z,14.58
2022-11-07T06:08:59.778Z,14.58
2022-11-07T06:11:26.156Z,14.59
2022-11-07T06:13:54.365Z,14.59
2022-11-07T06:16:20.898Z,14.59
2022-11-07T06:18:47.293Z,14.60
2022-11-07T06:21:14.392Z,14.60
2022-11-07T06:23:40.828Z,14.59
2022-11-07T06:26:07.247Z,14.61
2022-11-07T06:28:33.703Z,14.60
2022-11-07T06:31:00.946Z,14.59
2022-11-07T06:33:27.324Z,14.59
2022-11-07T06:35:53.660Z,14.59
2022-11-07T06:38:20.825Z,14.58
2022-11-07T06:40:47.276Z,14.58
2022-11-07T06:43:16.616Z,14.58
2022-11-07T06:45:44.510Z,14.58
2022-11-07T06:48:11.797Z,14.58
2022-11-07T06:50:38.922Z,14.58
2022-11-07T06:53:07.834Z,14.59
2022-11-07T06:55:36.113Z,14.59
2022-11-07T06:58:03.636Z,14.59
2022-11-07T07:00:33.069Z,14.59
2022-11-07T07:02:59.661Z,14.59
2022-11-07T07:05:26.721Z,14.58
2022-11-07T07:07:55.127Z,14.60
2022-11-07T07:10:21.877Z,14.59
2022-11-07T07:12:48.251Z,14.59
2022-11-07T07:15:14.708Z,14.59
2022-11-07T07:17:41.123Z,14.61
2022-11-07T07:20:08.370Z,14.62
2022-11-07T07:22:34.787Z,14.61
2022-11-07T07:25:01.193Z,14.62
2022-11-07T07:27:27.606Z,14.61
2022-11-07T07:29:53.938Z,14.62
2022-11-07T07:32:20.897Z,14.61
2022-11-07T07:34:47.267Z,14.62
2022-11-07T07:37:13.641Z,14.62
2022-11-07T07:39:40.013Z,14.62
2022-11-07T07:42:06.401Z,14.61
2022-11-07T07:44:32.778Z,14.62
2022-11-07T07:46:59.109Z,14.61
2022-11-07T07:49:25.428Z,14.63
2022-11-07T07:51:51.766Z,14.63
2022-11-07T07:54:18.134Z,14.65
2022-11-07T07:56:44.483Z,14.66
2022-11-07T07:59:10.868Z,14.69
2022-11-07T08:01:37.354Z,14.72
2022-11-07T08:04:03.908Z,14.75
2022-11-07T08:06:30.430Z,14.78
2022-11-07T08:08:56.896Z,14.81
2022-11-07T08:11:23.417Z,14.84
2022-11-07T08:13:49.781Z,14.88
2022-11-07T08:16:16.443Z,14.90
2022-11-07T08:18:42.809Z,14.94
2022-11-07T08:21:09.135Z,14.98
2022-11-07T08:23:36.242Z,15.01
2022-11-07T08:26:04.304Z,15.05
2022-11-07T08:28:44.045Z,15.08
2022-11-07T08:31:12.014Z,15.10
2022-11-07T08:33:39.375Z,15.14
2022-11-07T08:36:06.967Z,15.16
2022-11-07T08:38:35.431Z,15.19
2022-11-07T08:41:02.668Z,15.21
2022-11-07T08:43:29.454Z,15.24
2022-11-07T08:45:55.892Z,15.27
2022-11-07T08:48:22.829Z,15.29
2022-11-07T08:50:57.308Z,15.34
2022-11-07T08:53:25.106Z,15.36
2022-11-07T08:55:51.958Z,15.40
2022-11-07T08:58:19.135Z,15.43
2022-11-07T09:00:46.180Z,15.45
2022-11-07T09:06:00.268Z,15.50
2022-11-07T09:08:26.596Z,15.53
2022-11-07T09:10:52.938Z,15.56
2022-11-07T09:13:20.856Z,15.58
2022-11-07T09:15:50.955Z,15.61
2022-11-07T09:18:18.804Z,15.63
2022-11-07T09:20:45.257Z,15.64
2022-11-07T09:23:11.654Z,15.65
2022-11-07T09:25:38.037Z,15.65
2022-11-07T09:28:04.684Z,15.66
2022-11-07T09:30:31.486Z,15.66
2022-11-07T09:32:58.258Z,15.68
2022-11-07T09:35:24.614Z,15.70
2022-11-07T09:37:51.743Z,15.71
2022-11-07T09:40:43.446Z,15.74
2022-11-07T09:43:30.889Z,15.76
2022-11-07T09:46:08.627Z,15.78
2022-11-07T09:48:45.271Z,15.80
2022-11-07T09:51:18.650Z,15.83
2022-11-07T09:53:50.869Z,15.86
2022-11-07T09:56:17.343Z,15.90
2022-11-07T09:58:47.312Z,15.96
2022-11-07T10:01:16.877Z,16.03
2022-11-07T10:04:17.676Z,16.11
2022-11-07T10:06:46.224Z,16.25
2022-11-07T10:09:32.113Z,16.36
2022-11-07T10:12:21.156Z,16.44
2022-11-07T10:15:16.322Z,16.51
2022-11-07T10:17:57.521Z,16.57
2022-11-07T10:21:10.175Z,16.63
2022-11-07T10:24:01.230Z,16.69
2022-11-07T10:26:28.789Z,16.74
2022-11-07T10:29:02.716Z,16.78
2022-11-07T10:31:40.010Z,16.82
2022-11-07T10:34:20.090Z,16.85
2022-11-07T10:36:46.435Z,16.88
2022-11-07T10:39:18.877Z,16.92
2022-11-07T10:42:10.894Z,16.96
2022-11-07T10:44:40.290Z,16.99
2022-11-07T10:47:21.483Z,17.01
2022-11-07T10:49:56.259Z,17.02
2022-11-07T10:52:24.598Z,17.04
2022-11-07T10:54:51.133Z,17.07
2022-11-07T10:57:22.187Z,17.09
2022-11-07T10:59:51.751Z,17.13
2022-11-07T11:02:22.065Z,17.15
2022-11-07T11:04:54.551Z,17.16
2022-11-07T11:07:28.352Z,17.18
2022-11-07T11:09:57.760Z,17.20
2022-11-07T11:12:34.743Z,17.22
2022-11-07T11:15:14.452Z,17.25
2022-11-07T11:17:41.042Z,17.25
2022-11-07T11:20:28.518Z,17.29
2022-11-07T11:22:54.984Z,17.31
2022-11-07T11:25:22.228Z,17.32
2022-11-07T11:27:54.879Z,17.33
2022-11-07T11:30:22.093Z,17.34
2022-11-07T11:33:04.013Z,17.35
2022-11-07T11:35:36.319Z,17.38
2022-11-07T11:38:11.830Z,17.39
2022-11-07T11:40:41.613Z,17.38
2022-11-07T11:43:19.486Z,17.42
2022-11-07T11:45:53.841Z,17.40
2022-11-07T11:48:24.578Z,17.38
2022-11-07T11:51:03.746Z,17.38
2022-11-07T11:53:30.518Z,17.34
2022-11-07T11:56:02.883Z,17.31
2022-11-07T11:58:57.717Z,17.32
2022-11-07T12:01:53.733Z,17.30
2022-11-07T12:04:41.039Z,17.30
2022-11-07T12:07:34.926Z,17.28
2022-11-07T12:10:08.168Z,17.28
2022-11-07T12:13:07.563Z,17.25
2022-11-07T12:16:05.329Z,17.22
2022-11-07T12:18:45.034Z,17.17
2022-11-07T12:21:20.190Z,17.13
2022-11-07T12:24:00.063Z,17.08
2022-11-07T12:26:34.190Z,17.05
2022-11-07T12:29:03.256Z,17.00
2022-11-07T12:31:57.622Z,17.01
2022-11-07T12:34:34.346Z,16.99
2022-11-07T12:37:26.411Z,17.01
2022-11-07T12:40:29.298Z,17.01
2022-11-07T12:43:20.268Z,17.03
2022-11-07T12:46:22.037Z,17.02
2022-11-07T12:49:23.819Z,17.01
2022-11-07T12:52:19.310Z,16.98
2022-11-07T12:54:55.700Z,16.98
2022-11-07T12:57:25.455Z,16.96
2022-11-07T12:59:57.341Z,16.94
2022-11-07T13:02:50.652Z,16.91
2022-11-07T13:05:28.944Z,16.88
2022-11-07T13:08:14.928Z,16.89
2022-11-07T13:11:03.608Z,16.88
2022-11-07T13:13:54.807Z,16.89
2022-11-07T13:16:22.442Z,16.88
2022-11-07T13:18:48.781Z,16.88
2022-11-07T13:21:15.344Z,16.91
2022-11-07T13:23:41.713Z,16.94
2022-11-07T13:26:32.488Z,16.97
2022-11-07T13:28:57.541Z,17.06
2022-11-07T13:31:38.954Z,17.09
2022-11-07T13:34:24.723Z,17.10
2022-11-07T13:36:58.548Z,17.12
2022-11-07T13:39:25.476Z,17.11
2022-11-07T13:41:52.843Z,17.14
2022-11-07T13:44:28.076Z,17.16
2022-11-07T13:46:57.194Z,17.15
2022-11-07T13:49:28.039Z,17.15
2022-11-07T13:52:00.276Z,17.16
2022-11-07T13:54:54.913Z,17.17
2022-11-07T13:57:50.796Z,17.18
2022-11-07T14:00:21.015Z,17.16
2022-11-07T14:02:56.575Z,17.17
2022-11-07T14:05:29.415Z,17.17
2022-11-07T14:08:20.193Z,17.16
2022-11-07T14:10:49.251Z,17.14
2022-11-07T14:13:41.347Z,17.15
2022-11-07T14:16:20.191Z,17.14
2022-11-07T14:18:50.362Z,17.13
2022-11-07T14:21:29.545Z,17.11
2022-11-07T14:23:56.173Z,17.10
2022-11-07T14:26:33.516Z,17.11
2022-11-07T14:29:01.610Z,17.10
2022-11-07T14:31:30.921Z,17.10
2022-11-07T14:34:00.335Z,17.09
2022-11-07T14:36:28.053Z,17.07
2022-11-07T14:39:08.982Z,17.07
2022-11-07T14:41:41.612Z,17.06
2022-11-07T14:44:15.125Z,17.04
2022-11-07T14:46:42.056Z,17.01
2022-11-07T14:49:31.661Z,17.01
2022-11-07T14:51:58.385Z,16.99
2022-11-07T14:54:33.002Z,16.99
2022-11-07T14:57:00.952Z,16.97
2022-11-07T14:59:33.213Z,16.95
2022-11-07T15:02:10.484Z,16.95
2022-11-07T15:04:43.131Z,16.94
2022-11-07T15:07:31.081Z,16.93
2022-11-07T15:10:10.556Z,16.91
2022-11-07T15:12:49.863Z,16.92
2022-11-07T15:15:23.150Z,16.91
2022-11-07T15:17:52.688Z,16.91
2022-11-07T15:20:35.852Z,16.90
2022-11-07T15:23:14.479Z,16.91
2022-11-07T15:25:51.205Z,16.88
2022-11-07T15:28:17.782Z,16.88
2022-11-07T15:30:45.987Z,16.89
2022-11-07T15:33:13.773Z,16.89
2022-11-07T15:35:44.696Z,16.88
2022-11-07T15:38:21.034Z,16.90
2022-11-07T15:40:47.994Z,16.93
2022-11-07T15:43:14.775Z,16.92
2022-11-07T15:45:42.108Z,16.91
2022-11-07T15:48:12.635Z,16.90
2022-11-07T15:50:42.808Z,16.91
2022-11-07T15:53:22.991Z,16.89
2022-11-07T15:56:00.501Z,16.89
2022-11-07T15:58:29.297Z,16.88
2022-11-07T16:00:57.686Z,16.88
2022-11-07T16:03:25.661Z,16.88
2022-11-07T16:05:54.537Z,16.87
2022-11-07T16:08:23.763Z,16.87
2022-11-07T16:10:53.457Z,16.87
2022-11-07T16:13:20.237Z,16.85
2022-11-07T16:15:53.226Z,16.86
2022-11-07T16:18:21.670Z,16.84
2022-11-07T16:20:49.132Z,16.84
2022-11-07T16:23:16.694Z,16.84
2022-11-07T16:25:46.005Z,16.84
2022-11-07T16:28:26.354Z,16.84
2022-11-07T16:30:53.324Z,16.84
2022-11-07T16:33:20.279Z,16.83
2022-11-07T16:35:52.796Z,16.84
2022-11-07T16:38:21.030Z,16.84
2022-11-07T16:40:47.630Z,16.84
2022-11-07T16:43:14.345Z,16.86
2022-11-07T16:45:53.128Z,16.87
2022-11-07T16:48:19.505Z,16.86
2022-11-07T16:50:46.240Z,16.85
2022-11-07T16:53:13.288Z,16.85
2022-11-07T16:55:42.991Z,16.85
2022-11-07T16:58:24.678Z,16.86
2022-11-07T17:00:52.540Z,16.85
2022-11-07T17:03:19.621Z,16.86
2022-11-07T17:05:47.080Z,16.85
2022-11-07T17:08:22.758Z,16.85
2022-11-07T17:10:49.138Z,16.85
2022-11-07T17:13:16.215Z,16.83
2022-11-07T17:15:43.230Z,16.83
2022-11-07T17:18:24.240Z,16.83
2022-11-07T17:20:53.672Z,16.81
2022-11-07T17:23:25.365Z,16.80
2022-11-07T17:25:55.364Z,16.80
2022-11-07T17:28:22.211Z,16.80
2022-11-07T17:30:48.553Z,16.79
2022-11-07T17:33:14.959Z,16.80
2022-11-07T17:35:41.572Z,16.80
2022-11-07T17:38:16.117Z,16.81
2022-11-07T17:40:42.853Z,16.80
2022-11-07T17:43:09.425Z,16.81
2022-11-07T17:45:36.413Z,16.81
2022-11-07T17:48:02.836Z,16.82
2022-11-07T17:50:29.563Z,16.81
2022-11-07T17:52:55.929Z,16.81
2022-11-07T17:55:22.325Z,16.80
2022-11-07T17:57:48.775Z,16.80
2022-11-07T18:00:21.337Z,16.81
2022-11-07T18:02:49.911Z,16.80
2022-11-07T18:05:18.422Z,16.80
2022-11-07T18:07:45.434Z,16.80
2022-11-07T18:10:15.280Z,16.81
2022-11-07T18:12:42.782Z,16.80
2022-11-07T18:15:12.888Z,16.78
2022-11-07T18:17:40.278Z,16.80
2022-11-07T18:20:08.156Z,16.80
2022-11-07T18:22:36.651Z,16.79
2022-11-07T18:25:04.599Z,16.79
2022-11-07T18:27:31.158Z,16.79
2022-11-07T18:29:57.547Z,16.78
2022-11-07T18:32:24.734Z,16.77
2022-11-07T18:34:51.282Z,16.77
2022-11-07T18:37:18.779Z,16.76
2022-11-07T18:39:45.209Z,16.76
2022-11-07T18:42:11.752Z,16.75
2022-11-07T18:44:38.173Z,16.74
2022-11-07T18:47:04.566Z,16.73
2022-11-07T18:49:31.102Z,16.74
2022-11-07T18:51:57.522Z,16.73
2022-11-07T18:54:26.144Z,16.72
2022-11-07T18:56:52.840Z,16.70
2022-11-07T18:59:19.295Z,16.71
2022-11-07T19:01:46.015Z,16.70
2022-11-07T19:04:12.699Z,16.68
2022-11-07T19:06:55.555Z,16.68
2022-11-07T19:09:30.035Z,16.68
2022-11-07T19:11:58.025Z,16.68
2022-11-07T19:14:25.695Z,16.66
2022-11-07T19:16:52.556Z,16.66
2022-11-07T19:19:18.960Z,16.64
2022-11-07T19:21:45.350Z,16.63
2022-11-07T19:24:12.816Z,16.62
2022-11-07T19:26:39.541Z,16.60
2022-11-07T19:29:06.558Z,16.59
2022-11-07T19:31:34.891Z,16.60
2022-11-07T19:34:01.630Z,16.60
2022-11-07T19:36:28.168Z,16.59
2022-11-07T19:38:54.576Z,16.59
2022-11-07T19:41:20.990Z,16.58
2022-11-07T19:43:50.883Z,16.59
2022-11-07T19:46:20.238Z,16.58
2022-11-07T19:48:47.719Z,16.58
2022-11-07T19:51:21.199Z,16.58
2022-11-07T19:53:55.813Z,16.59
2022-11-07T19:56:23.784Z,16.58
2022-11-07T19:58:50.424Z,16.58
2022-11-07T20:01:24.245Z,16.58
2022-11-07T20:03:52.396Z,16.56
2022-11-07T20:06:21.903Z,16.57
2022-11-07T20:08:48.742Z,16.57
2022-11-07T20:11:16.918Z,16.56
2022-11-07T20:13:43.860Z,16.56
2022-11-07T20:16:10.518Z,16.57
2022-11-07T20:18:38.427Z,16.58
2022-11-07T20:21:10.361Z,16.58
2022-11-07T20:23:36.747Z,16.57
2022-11-07T20:26:10.731Z,16.58
2022-11-07T20:28:39.508Z,16.59
2022-11-07T20:31:17.568Z,16.59
2022-11-07T20:33:44.208Z,16.60
2022-11-07T20:36:13.205Z,16.62
2022-11-07T20:38:40.247Z,16.62
2022-11-07T20:41:07.286Z,16.62
2022-11-07T20:43:34.123Z,16.63
2022-11-07T20:46:09.477Z,16.65
2022-11-07T20:48:36.502Z,16.63
2022-11-07T20:51:10.823Z,16.64
2022-11-07T20:53:46.706Z,16.65
2022-11-07T20:56:15.091Z,16.64
2022-11-07T20:58:42.830Z,16.64
2022-11-07T21:01:13.804Z,16.65
2022-11-07T21:03:40.445Z,16.65
2022-11-07T21:06:11.217Z,16.63
2022-11-07T21:08:38.949Z,16.63
2022-11-07T21:11:05.489Z,16.64
2022-11-07T21:13:31.971Z,16.65
2022-11-07T21:15:58.389Z,16.63
2022-11-07T21:18:24.898Z,16.64
2022-11-07T21:20:51.549Z,16.64
2022-11-07T21:23:18.332Z,16.64
2022-11-07T21:25:47.802Z,16.64
2022-11-07T21:28:17.093Z,16.65
2022-11-07T21:31:04.245Z,16.67
2022-11-07T21:33:31.650Z,16.65
2022-11-07T21:35:58.004Z,16.65
2022-11-07T21:38:24.837Z,16.65
2022-11-07T21:40:52.202Z,16.66
2022-11-07T21:43:19.567Z,16.65
2022-11-07T21:45:46.266Z,16.65
2022-11-07T21:48:12.847Z,16.65
2022-11-07T21:50:44.669Z,16.65
2022-11-07T21:53:11.929Z,16.65
2022-11-07T21:55:38.307Z,16.65
2022-11-07T21:58:04.706Z,16.64
2022-11-07T22:00:35.899Z,16.65
2022-11-07T22:03:02.857Z,16.65
2022-11-07T22:05:29.199Z,16.66
2022-11-07T22:07:55.565Z,16.63
2022-11-07T22:10:21.934Z,16.62
2022-11-07T22:12:48.327Z,16.58
2022-11-07T22:15:14.799Z,16.57
2022-11-07T22:17:41.181Z,16.52
2022-11-07T22:20:08.285Z,16.48
2022-11-07T22:22:36.105Z,16.42
2022-11-07T22:25:02.506Z,16.37
2022-11-07T22:27:28.895Z,16.33
2022-11-07T22:29:55.577Z,16.28
2022-11-07T22:32:21.979Z,16.23
2022-11-07T22:34:48.343Z,16.20
2022-11-07T22:37:14.717Z,16.17
2022-11-07T22:39:41.057Z,16.16
2022-11-07T22:42:07.446Z,16.13
2022-11-07T22:44:33.823Z,16.11
2022-11-07T22:47:00.176Z,16.09
2022-11-07T22:49:26.596Z,16.09
2022-11-07T22:51:52.984Z,16.08
2022-11-07T22:54:19.385Z,16.06
2022-11-07T22:56:45.750Z,16.06
2022-11-07T22:59:12.131Z,16.02
2022-11-07T23:01:40.544Z,15.98
2022-11-07T23:04:10.056Z,15.94
2022-11-07T23:06:36.458Z,15.90
2022-11-07T23:09:02.860Z,15.85
2022-11-07T23:11:48.828Z,15.80
2022-11-07T23:14:18.370Z,15.74
2022-11-07T23:16:48.177Z,15.68
2022-11-07T23:19:16.192Z,15.62
2022-11-07T23:21:43.103Z,15.56
2022-11-07T23:24:10.304Z,15.52
2022-11-07T23:26:36.818Z,15.46
2022-11-07T23:29:23.861Z,15.42
2022-11-07T23:31:51.653Z,15.36
2022-11-07T23:34:19.291Z,15.31
2022-11-07T23:36:45.753Z,15.27
2022-11-07T23:39:17.892Z,15.22
2022-11-07T23:41:44.703Z,15.18
2022-11-07T23:44:11.394Z,15.12
2022-11-07T23:46:56.580Z,15.09
2022-11-07T23:49:41.417Z,15.03
2022-11-07T23:52:08.058Z,14.99
2022-11-07T23:55:00.550Z,14.95
2022-11-07T23:57:27.187Z,14.89
